Time,TemperatureF,DewpointF,PressureIn,WindDirection,WindDirectionDegrees,WindSpeedMPH,WindSpeedGustMPH,Humidity,HourlyPrecipIn,Conditions,Clouds,dailyrainin,SolarRadiationWatts/m^2,SoftwareType,DateUTC
2013-10-29 00:09:00,20.3,14.0,30.20,NW,316,3.0,5.0,77,0.00,,,0.00,46,weatherlink.com 1.10,2013-10-29 06:09:00,
2013-10-29 00:24:00,20.3,14.0,30.18,West,275,4.0,5.0,78,0.00,,,0.00,18,weatherlink.com 1.10,2013-10-29 06:24:00,
2013-10-29 00:39:00,20.5,15.0,30.19,West,275,0.0,5.0,78,0.00,,,0.00,47,weatherlink.com 1.10,2013-10-29 06:39:00,
2013-10-29 00:54:00,20.8,15.0,30.20,East,82,5.0,6.0,79,0.00,,,0.00,58,weatherlink.com 1.10,2013-10-29 06:54:00,
2013-10-29 01:09:00,21.2,16.0,30.20,ENE,67,8.0,12.0,79,0.00,,,0.00,47,weatherlink.com 1.10,2013-10-29 07:09:00,
2013-10-29 01:24:00,21.2,16.0,30.21,ENE,77,9.0,12.0,79,0.00,,,0.00,19,weatherlink.com 1.10,2013-10-29 07:24:00,
2013-10-29 01:39:00,21.0,16.0,30.22,East,85,7.0,12.0,80,0.00,,,0.00,60,weatherlink.com 1.10,2013-10-29 07:39:00,
2013-10-29 01:54:00,20.9,16.0,30.22,East,89,8.0,12.0,80,0.00,,,0.00,18,weatherlink.com 1.10,2013-10-29 07:54:00,
2013-10-29 02:09:00,21.0,16.0,30.22,ENE,77,3.0,9.0,80,0.00,,,0.00,60,weatherlink.com 1.10,2013-10-29 08:09:00,
2013-10-29 02:24:00,21.3,15.0,30.21,East,83,3.0,6.0,76,0.00,,,0.00,19,weatherlink.com 1.10,2013-10-29 08:24:00,
2013-10-29 02:39:00,21.5,15.0,30.19,East,83,3.0,5.0,77,0.00,,,0.00,60,weatherlink.com 1.10,2013-10-29 08:39:00,
2013-10-29 02:54:00,21.7,16.0,30.18,East,83,3.0,4.0,77,0.00,,,0.00,35,weatherlink.com 1.10,2013-10-29 08:54:00,
2013-10-29 03:09:00,21.7,16.0,30.18,East,83,4.0,5.0,77,0.00,,,0.00,60,weatherlink.com 1.10,2013-10-29 09:09:00,
2013-10-29 03:24:00,21.6,16.0,30.19,ENE,66,3.0,6.0,78,0.00,,,0.00,33,weatherlink.com 1.10,2013-10-29 09:24:00,
2013-10-29 03:39:00,21.5,16.0,30.18,ENE,66,2.0,4.0,79,0.00,,,0.00,58,weatherlink.com 1.10,2013-10-29 09:39:00,
2013-10-29 03:54:00,21.5,16.0,30.18,ESE,117,6.0,7.0,79,0.00,,,0.00,33,weatherlink.com 1.10,2013-10-29 09:54:00,
2013-10-29 04:09:00,20.7,16.0,30.18,SE,124,5.0,7.0,81,0.00,,,0.00,58,weatherlink.com 1.10,2013-10-29 10:09:00,
2013-10-29 04:24:00,20.3,16.0,30.17,ENE,77,7.0,8.0,83,0.00,,,0.00,32,weatherlink.com 1.10,2013-10-29 10:24:00,
2013-10-29 04:39:00,19.8,15.0,30.17,ENE,73,8.0,11.0,82,0.00,,,0.00,54,weatherlink.com 1.10,2013-10-29 10:39:00,
2013-10-29 04:54:00,20.1,16.0,30.16,East,82,11.0,14.0,84,0.00,,,0.00,44,weatherlink.com 1.10,2013-10-29 10:54:00,
2013-10-29 05:09:00,19.3,15.0,30.16,East,82,7.0,11.0,82,0.00,,,0.00,42,weatherlink.com 1.10,2013-10-29 11:09:00,
2013-10-29 05:24:00,18.7,14.0,30.15,East,87,5.0,10.0,82,0.00,,,0.00,28,weatherlink.com 1.10,2013-10-29 11:24:00,
2013-10-29 05:39:00,19.4,15.0,30.15,NE,43,3.0,7.0,83,0.00,,,0.00,28,weatherlink.com 1.10,2013-10-29 11:39:00,
2013-10-29 05:54:00,18.8,14.0,30.14,NNE,25,2.0,4.0,82,0.00,,,0.00,26,weatherlink.com 1.10,2013-10-29 11:54:00,
2013-10-29 06:09:00,19.7,16.0,30.14,South,173,7.0,10.0,84,0.00,,,0.00,14,weatherlink.com 1.10,2013-10-29 12:09:00,
2013-10-29 06:24:00,18.7,14.0,30.16,SSE,158,5.0,7.0,83,0.00,,,0.00,12,weatherlink.com 1.10,2013-10-29 12:24:00,
2013-10-29 06:39:00,18.8,15.0,30.16,NE,56,0.0,6.0,85,0.00,,,0.00,0,weatherlink.com 1.10,2013-10-29 12:39:00,
2013-10-29 06:54:00,18.0,14.0,30.16,NE,56,1.0,3.0,83,0.00,,,0.00,0,weatherlink.com 1.10,2013-10-29 12:54:00,
2013-10-29 07:09:00,17.5,14.0,30.17,NE,56,1.0,3.0,84,0.00,,,0.00,44,weatherlink.com 1.10,2013-10-29 13:09:00,
2013-10-29 07:24:00,17.9,14.0,30.18,NE,56,2.0,3.0,85,0.00,,,0.00,0,weatherlink.com 1.10,2013-10-29 13:24:00,
2013-10-29 07:39:00,18.6,15.0,30.18,NE,56,2.0,4.0,84,0.00,,,0.00,46,weatherlink.com 1.10,2013-10-29 13:39:00,
2013-10-29 07:54:00,19.7,16.0,30.17,NNE,33,4.0,7.0,84,0.00,,,0.00,23,weatherlink.com 1.10,2013-10-29 13:54:00,
2013-10-29 08:09:00,19.9,16.0,30.17,NNE,33,2.0,4.0,83,0.00,,,0.00,9,weatherlink.com 1.10,2013-10-29 14:09:00,
2013-10-29 08:24:00,20.0,15.0,30.17,NNE,33,3.0,5.0,82,0.00,,,0.00,0,weatherlink.com 1.10,2013-10-29 14:24:00,
2013-10-29 08:39:00,20.5,16.0,30.17,NE,39,2.0,7.0,82,0.00,,,0.00,0,weatherlink.com 1.10,2013-10-29 14:39:00,
2013-10-29 08:54:00,20.8,16.0,30.16,ESE,106,7.0,9.0,82,0.00,,,0.00,0,weatherlink.com 1.10,2013-10-29 14:54:00,
2013-10-29 09:09:00,20.6,16.0,30.16,ENE,71,10.0,11.0,82,0.00,,,0.00,0,weatherlink.com 1.10,2013-10-29 15:09:00,
2013-10-29 09:24:00,20.0,15.0,30.16,East,90,10.0,11.0,81,0.00,,,0.00,0,weatherlink.com 1.10,2013-10-29 15:24:00,
2013-10-29 09:39:00,20.7,16.0,30.16,East,99,9.0,11.0,83,0.00,,,0.00,0,weatherlink.com 1.10,2013-10-29 15:39:00,
2013-10-29 09:54:00,22.4,18.0,30.16,ESE,110,10.0,14.0,82,0.00,,,0.00,0,weatherlink.com 1.10,2013-10-29 15:54:00,
2013-10-29 10:10:00,24.2,18.0,30.16,NE,44,3.0,9.0,77,0.00,,,0.00,0,weatherlink.com 1.10,2013-10-29 16:10:00,
2013-10-29 10:25:00,24.4,18.0,30.15,North,10,3.0,6.0,76,0.00,,,0.00,0,weatherlink.com 1.10,2013-10-29 16:25:00,
2013-10-29 10:40:00,25.0,19.0,30.14,West,275,7.0,8.0,77,0.00,,,0.00,0,weatherlink.com 1.10,2013-10-29 16:40:00,
2013-10-29 10:55:00,26.6,20.0,30.15,West,275,6.0,8.0,75,0.00,,,0.00,0,weatherlink.com 1.10,2013-10-29 16:55:00,
2013-10-29 11:20:00,27.8,19.0,30.14,WNW,285,4.0,6.0,70,0.00,,,0.00,0,weatherlink.com 1.10,2013-10-29 17:20:00,
2013-10-29 11:25:00,28.2,20.0,30.14,WNW,285,3.0,6.0,70,0.00,,,0.00,0,weatherlink.com 1.10,2013-10-29 17:25:00,
2013-10-29 11:40:00,28.9,20.0,30.14,WNW,285,3.0,4.0,70,0.00,,,0.00,0,weatherlink.com 1.10,2013-10-29 17:40:00,
2013-10-29 11:55:00,30.4,21.0,30.13,WNW,285,0.0,2.0,68,0.00,,,0.00,0,weatherlink.com 1.10,2013-10-29 17:55:00,
2013-10-29 12:10:00,31.1,21.0,30.13,WNW,289,5.0,6.0,66,0.00,,,0.00,0,weatherlink.com 1.10,2013-10-29 18:10:00,
2013-10-29 12:25:00,31.7,22.0,30.13,WNW,289,1.0,4.0,68,0.00,,,0.00,0,weatherlink.com 1.10,2013-10-29 18:25:00,
2013-10-29 12:40:00,33.0,23.0,30.12,WNW,294,5.0,5.0,66,0.00,,,0.00,0,weatherlink.com 1.10,2013-10-29 18:40:00,
2013-10-29 12:55:00,33.4,23.0,30.11,WNW,289,6.0,6.0,65,0.00,,,0.00,0,weatherlink.com 1.10,2013-10-29 18:55:00,
2013-10-29 13:10:00,33.7,23.0,30.11,WNW,289,4.0,6.0,64,0.00,,,0.00,0,weatherlink.com 1.10,2013-10-29 19:10:00,
2013-10-29 13:25:00,34.1,23.0,30.10,West,267,5.0,6.0,63,0.00,,,0.00,0,weatherlink.com 1.10,2013-10-29 19:25:00,
2013-10-29 13:40:00,34.9,23.0,30.10,West,267,3.0,6.0,62,0.00,,,0.00,0,weatherlink.com 1.10,2013-10-29 19:40:00,
2013-10-29 13:55:00,35.6,23.0,30.09,West,267,3.0,5.0,61,0.00,,,0.00,0,weatherlink.com 1.10,2013-10-29 19:55:00,
2013-10-29 14:10:00,36.0,23.0,30.09,West,267,3.0,4.0,59,0.00,,,0.00,0,weatherlink.com 1.10,2013-10-29 20:10:00,
2013-10-29 14:25:00,35.7,23.0,30.08,West,267,3.0,3.0,61,0.00,,,0.00,0,weatherlink.com 1.10,2013-10-29 20:25:00,
2013-10-29 14:40:00,35.9,23.0,30.07,West,267,0.0,2.0,61,0.00,,,0.00,0,weatherlink.com 1.10,2013-10-29 20:40:00,
2013-10-29 14:55:00,37.5,23.0,30.07,West,267,2.0,4.0,56,0.00,,,0.00,0,weatherlink.com 1.10,2013-10-29 20:55:00,
2013-10-29 15:10:00,37.5,23.0,30.06,West,267,2.0,4.0,57,0.00,,,0.00,0,weatherlink.com 1.10,2013-10-29 21:10:00,
2013-10-29 15:25:00,37.9,23.0,30.06,West,267,4.0,4.0,55,0.00,,,0.00,0,weatherlink.com 1.10,2013-10-29 21:25:00,
2013-10-29 15:40:00,38.2,23.0,30.06,West,267,5.0,5.0,55,0.00,,,0.00,0,weatherlink.com 1.10,2013-10-29 21:40:00,
2013-10-29 15:55:00,38.3,24.0,30.05,West,267,4.0,6.0,56,0.00,,,0.00,0,weatherlink.com 1.10,2013-10-29 21:55:00,
2013-10-29 16:10:00,38.3,23.0,30.06,West,267,4.0,6.0,55,0.00,,,0.00,0,weatherlink.com 1.10,2013-10-29 22:10:00,
2013-10-29 16:25:00,38.3,24.0,30.06,West,267,4.0,7.0,56,0.00,,,0.00,0,weatherlink.com 1.10,2013-10-29 22:25:00,
2013-10-29 16:40:00,38.2,23.0,30.05,WSW,256,5.0,7.0,55,0.00,,,0.00,0,weatherlink.com 1.10,2013-10-29 22:40:00,
2013-10-29 16:56:00,38.4,23.0,30.05,WSW,258,3.0,6.0,55,0.00,,,0.00,0,weatherlink.com 1.10,2013-10-29 22:56:00,
2013-10-29 17:11:00,38.1,23.0,30.04,WSW,258,3.0,5.0,55,0.00,,,0.00,0,weatherlink.com 1.10,2013-10-29 23:11:00,
2013-10-29 17:26:00,38.7,24.0,30.04,WSW,258,5.0,6.0,57,0.00,,,0.00,0,weatherlink.com 1.10,2013-10-29 23:26:00,
2013-10-29 17:41:00,38.4,23.0,30.04,West,260,8.0,9.0,55,0.00,,,0.00,0,weatherlink.com 1.10,2013-10-29 23:41:00,
2013-10-29 17:56:00,36.9,24.0,30.04,WSW,256,7.0,9.0,60,0.00,,,0.00,0,weatherlink.com 1.10,2013-10-29 23:56:00,
2013-10-29 18:11:00,35.7,24.0,30.04,WSW,255,7.0,9.0,63,0.00,,,0.00,0,weatherlink.com 1.10,2013-10-30 00:11:00,
2013-10-29 18:26:00,34.9,24.0,30.04,WSW,254,6.0,8.0,65,0.00,,,0.00,56,weatherlink.com 1.10,2013-10-30 00:26:00,
2013-10-29 18:41:00,34.0,23.0,30.05,WSW,254,2.0,4.0,65,0.00,,,0.00,14,weatherlink.com 1.10,2013-10-30 00:41:00,
2013-10-29 18:56:00,33.5,22.0,30.05,WSW,254,1.0,2.0,64,0.00,,,0.00,65,weatherlink.com 1.10,2013-10-30 00:56:00,
2013-10-29 19:11:00,33.5,22.0,30.06,WSW,254,0.0,1.0,64,0.00,,,0.00,62,weatherlink.com 1.10,2013-10-30 01:11:00,
2013-10-29 19:26:00,33.2,25.0,30.06,WSW,255,3.0,4.0,71,0.00,,,0.00,63,weatherlink.com 1.10,2013-10-30 01:26:00,
2013-10-29 19:41:00,32.9,24.0,30.06,WSW,255,0.0,3.0,70,0.00,,,0.00,40,weatherlink.com 1.10,2013-10-30 01:41:00,
2013-10-29 19:56:00,32.1,24.0,30.06,NNW,335,4.0,5.0,73,0.00,,,0.00,39,weatherlink.com 1.10,2013-10-30 01:56:00,
2013-10-29 20:11:00,31.7,24.0,30.06,ENE,65,5.0,6.0,74,0.00,,,0.00,11,weatherlink.com 1.10,2013-10-30 02:11:00,
2013-10-29 20:26:00,31.6,24.0,30.05,ENE,65,4.0,5.0,73,0.00,,,0.00,11,weatherlink.com 1.10,2013-10-30 02:26:00,
2013-10-29 20:41:00,31.6,24.0,30.05,ENE,65,4.0,5.0,74,0.00,,,0.00,62,weatherlink.com 1.10,2013-10-30 02:41:00,
2013-10-29 20:56:00,31.2,25.0,30.05,ENE,75,5.0,6.0,79,0.00,,,0.00,60,weatherlink.com 1.10,2013-10-30 02:56:00,
2013-10-29 21:11:00,29.5,25.0,30.05,ESE,108,3.0,8.0,82,0.00,,,0.00,56,weatherlink.com 1.10,2013-10-30 03:11:00,
2013-10-29 21:26:00,29.0,25.0,30.05,ESE,114,4.0,8.0,84,0.00,,,0.00,72,weatherlink.com 1.10,2013-10-30 03:26:00,
2013-10-29 21:41:00,28.8,25.0,30.05,East,100,5.0,7.0,84,0.00,,,0.00,33,weatherlink.com 1.10,2013-10-30 03:41:00,
2013-10-29 21:56:00,28.3,24.0,30.05,East,101,6.0,7.0,85,0.00,,,0.00,53,weatherlink.com 1.10,2013-10-30 03:56:00,
2013-10-29 22:11:00,28.3,25.0,30.05,East,96,5.0,6.0,86,0.00,,,0.00,5,weatherlink.com 1.10,2013-10-30 04:11:00,
2013-10-29 22:26:00,27.8,24.0,30.05,East,96,6.0,6.0,85,0.00,,,0.00,32,weatherlink.com 1.10,2013-10-30 04:26:00,
2013-10-29 22:41:00,27.2,24.0,30.05,ESE,115,5.0,9.0,86,0.00,,,0.00,65,weatherlink.com 1.10,2013-10-30 04:41:00,
2013-10-29 22:56:00,26.9,24.0,30.05,ESE,114,3.0,7.0,87,0.00,,,0.00,0,weatherlink.com 1.10,2013-10-30 04:56:00,
2013-10-29 23:11:00,26.7,23.0,30.05,ESE,114,4.0,7.0,86,0.00,,,0.00,47,weatherlink.com 1.10,2013-10-30 05:11:00,
2013-10-29 23:26:00,26.2,23.0,30.04,ESE,114,1.0,6.0,87,0.00,,,0.00,0,weatherlink.com 1.10,2013-10-30 05:26:00,
2013-10-29 23:41:00,26.2,23.0,30.04,ESE,114,2.0,4.0,88,0.00,,,0.00,26,weatherlink.com 1.10,2013-10-30 05:41:00,
2013-10-29 23:56:00,26.0,23.0,30.03,ESE,114,2.0,3.0,87,0.00,,,0.00,58,weatherlink.com 1.10,2013-10-30 05:56:00,